Observation data for Slaton on 01/19/2019      Previous  Date  Next       Current Mesonet Observations  Soil Data  Daily Summary Page  Observations in Plain Language
KSLS 190600Z 35027G38KT 02/M02 A3004 RMK A01 T00191023  RH  075%=      5-min Rain = 0
KSLS 190605Z 34030G41KT 01/M02 A3004 RMK A01 T00111022  RH  080%=      5-min Rain = 0
KSLS 190610Z 34028G38KT 00/M02 A3004 RMK A01 T00041016  RH  087%=      5-min Rain = 0
KSLS 190615Z 34029G38KT 00/M02 A3004 RMK A01 T00021015  RH  089%=      5-min Rain = 0
KSLS 190620Z 34024G37KT 00/M02 A3005 RMK A01 T00011015  RH  090%=      5-min Rain = 0
KSLS 190625Z 34025G38KT M00/M01 A3005 RMK A01 T10011014  RH  092%=      5-min Rain = 0
KSLS 190630Z 35022G28KT M00/M01 A3006 RMK A01 T10021013  RH  093%=      5-min Rain = 0
KSLS 190635Z 35019G27KT M00/M01 A3006 RMK A01 T10021013  RH  094%=      5-min Rain = 0
KSLS 190640Z 34017G24KT M00/M01 A3006 RMK A01 T10021012  RH  094%=      5-min Rain = 0
KSLS 190645Z 34017G24KT M00/M01 A3006 RMK A01 T10011012  RH  094%=      5-min Rain = 0
KSLS 190650Z 34017G25KT M00/M01 A3006 RMK A01 T10011012  RH  093%=      5-min Rain = 0
KSLS 190655Z 34019G27KT 00/M01 A3006 RMK A01 T00011012  RH  092%=      5-min Rain = 0
KSLS 190700Z 34018G24KT 00/M01 A3006 RMK A01 T00011012  RH  092%=      5-min Rain = 0
KSLS 190705Z 34019G26KT 00/M01 A3006 RMK A01 T00021012  RH  092%=      5-min Rain = 0
KSLS 190710Z 33018KT 00/M01 A3006 RMK A01 T00021012  RH  091%=      5-min Rain = 0
KSLS 190715Z 34019G24KT 00/M01 A3006 RMK A01 T00031012  RH  091%=      5-min Rain = 0
KSLS 190720Z 34018G23KT 00/M01 A3006 RMK A01 T00041014  RH  089%=      5-min Rain = 0
KSLS 190725Z 34016G23KT 01/M02 A3006 RMK A01 T00051015  RH  087%=      5-min Rain = 0
KSLS 190730Z 33014G21KT 01/M01 A3007 RMK A01 T00061014  RH  087%=      5-min Rain = 0
KSLS 190735Z 33016G24KT 01/M01 A3007 RMK A01 T00071014  RH  087%=      5-min Rain = 0
KSLS 190740Z 33017G23KT 01/M01 A3007 RMK A01 T00091014  RH  086%=      5-min Rain = 0
KSLS 190745Z 33020G33KT 01/M02 A3008 RMK A01 T00101015  RH  084%=      5-min Rain = 0
KSLS 190750Z 33018G26KT 01/M02 A3008 RMK A01 T00121016  RH  082%=      5-min Rain = 0
KSLS 190755Z 34017G25KT 01/M02 A3008 RMK A01 T00121019  RH  081%=      5-min Rain = 0
KSLS 190800Z 34017G25KT 01/M02 A3009 RMK A01 T00111021  RH  080%=      5-min Rain = 0
KSLS 190805Z 33019G26KT 01/M02 A3009 RMK A01 T00101023  RH  080%=      5-min Rain = 0
KSLS 190810Z 34017G26KT 01/M02 A3009 RMK A01 T00101024  RH  079%=      5-min Rain = 0
KSLS 190815Z 34016G21KT 01/M02 A3009 RMK A01 T00081024  RH  080%=      5-min Rain = 0
KSLS 190820Z 33015G23KT 01/M02 A3009 RMK A01 T00071024  RH  081%=      5-min Rain = 0
KSLS 190825Z 33014G20KT 01/M03 A3009 RMK A01 T00071025  RH  081%=      5-min Rain = 0
KSLS 190830Z 34017G25KT 01/M03 A3009 RMK A01 T00061026  RH  080%=      5-min Rain = 0
KSLS 190835Z 34016G23KT 01/M03 A301 RMK A01 T00061027  RH  079%=      5-min Rain = 0
KSLS 190840Z 34016G23KT 01/M03 A301 RMK A01 T00051027  RH  080%=      5-min Rain = 0
KSLS 190845Z 33016G24KT 01/M03 A301 RMK A01 T00051027  RH  080%=      5-min Rain = 0
KSLS 190850Z 33016G22KT 00/M03 A301 RMK A01 T00041028  RH  080%=      5-min Rain = 0
KSLS 190855Z 34020G28KT 01/M03 A301 RMK A01 T00051030  RH  078%=      5-min Rain = 0
KSLS 190900Z 34017G25KT 00/M03 A3011 RMK A01 T00041033  RH  077%=      5-min Rain = 0
KSLS 190905Z 34017G23KT 00/M03 A3011 RMK A01 T00031034  RH  077%=      5-min Rain = 0
KSLS 190910Z 34015G20KT 00/M03 A3012 RMK A01 T00011033  RH  078%=      5-min Rain = 0
KSLS 190915Z 34019G26KT 00/M04 A3012 RMK A01 T00021035  RH  077%=      5-min Rain = 0
KSLS 190920Z 34016G22KT 00/M04 A3012 RMK A01 T00021035  RH  077%=      5-min Rain = 0
KSLS 190925Z 34015G21KT 00/M04 A3013 RMK A01 T00011035  RH  078%=      5-min Rain = 0
KSLS 190930Z 34017G27KT 00/M04 A3013 RMK A01 T00011036  RH  077%=      5-min Rain = 0
KSLS 190935Z 34016KT 00/M04 A3013 RMK A01 T00011037  RH  077%=      5-min Rain = 0
KSLS 190940Z 34014G22KT M00/M04 A3013 RMK A01 T10011037  RH  077%=      5-min Rain = 0
KSLS 190945Z 34013G20KT M00/M04 A3014 RMK A01 T10011037  RH  078%=      5-min Rain = 0
KSLS 190950Z 34014G20KT M00/M04 A3014 RMK A01 T10011036  RH  078%=      5-min Rain = 0
KSLS 190955Z 33014G19KT M00/M04 A3014 RMK A01 T10011035  RH  079%=      5-min Rain = 0
KSLS 191000Z 33018G26KT M00/M04 A3014 RMK A01 T10011037  RH  078%=      5-min Rain = 0
KSLS 191005Z 33018G25KT M00/M04 A3014 RMK A01 T10021038  RH  078%=      5-min Rain = 0
KSLS 191010Z 33017G24KT M00/M04 A3015 RMK A01 T10031038  RH  078%=      5-min Rain = 0
KSLS 191015Z 33018G27KT M00/M04 A3015 RMK A01 T10041040  RH  078%=      5-min Rain = 0
KSLS 191020Z 33020G25KT M00/M04 A3015 RMK A01 T10041041  RH  077%=      5-min Rain = 0
KSLS 191025Z 34021G30KT M00/M04 A3015 RMK A01 T10041043  RH  076%=      5-min Rain = 0
KSLS 191030Z 34019G26KT M01/M04 A3015 RMK A01 T10051043  RH  076%=      5-min Rain = 0
KSLS 191035Z 33023G31KT M00/M04 A3015 RMK A01 T10041043  RH  076%=      5-min Rain = 0
KSLS 191040Z 33020G27KT M01/M04 A3016 RMK A01 T10051042  RH  077%=      5-min Rain = 0
KSLS 191045Z 33020G28KT M01/M04 A3016 RMK A01 T10061042  RH  078%=      5-min Rain = 0
KSLS 191050Z 33019G26KT M01/M04 A3017 RMK A01 T10061042  RH  078%=      5-min Rain = 0
KSLS 191055Z 33019G26KT M01/M04 A3017 RMK A01 T10061041  RH  078%=      5-min Rain = 0
KSLS 191100Z 33017G25KT M01/M04 A3017 RMK A01 T10061041  RH  078%=      5-min Rain = 0
KSLS 191105Z 33018G23KT M01/M04 A3017 RMK A01 T10061041  RH  078%=      5-min Rain = 0
KSLS 191110Z 32016G24KT M01/M04 A3018 RMK A01 T10071041  RH  079%=      5-min Rain = 0
KSLS 191115Z 32016G23KT M01/M04 A3018 RMK A01 T10071040  RH  079%=      5-min Rain = 0
KSLS 191120Z 33017G28KT M01/M04 A3018 RMK A01 T10071040  RH  079%=      5-min Rain = 0
KSLS 191125Z 33015G23KT M01/M04 A3018 RMK A01 T10081041  RH  079%=      5-min Rain = 0
KSLS 191130Z 33016G25KT M01/M04 A3018 RMK A01 T10081041  RH  079%=      5-min Rain = 0
KSLS 191135Z 33015G20KT M01/M04 A3019 RMK A01 T10081041  RH  080%=      5-min Rain = 0
KSLS 191140Z 33016G22KT M01/M04 A3019 RMK A01 T10091041  RH  080%=      5-min Rain = 0
KSLS 191145Z 33016G22KT M01/M04 A3019 RMK A01 T10091041  RH  080%=      5-min Rain = 0
KSLS 191150Z 33015G21KT M01/M04 A3019 RMK A01 T10091041  RH  080%=      5-min Rain = 0
KSLS 191155Z 33014G19KT M01/M04 A3019 RMK A01 T10111041  RH  081%=      5-min Rain = 0
KSLS 191200Z 33015G20KT M01/M04 A3019 RMK A01 T10111041  RH  081%=      5-min Rain = 0
KSLS 191205Z 34013G19KT M01/M04 A3019 RMK A01 T10111041  RH  081%=      5-min Rain = 0
KSLS 191210Z 34015G21KT M01/M04 A3019 RMK A01 T10121042  RH  081%=      5-min Rain = 0
KSLS 191215Z 33014KT M01/M04 A3019 RMK A01 T10121042  RH  081%=      5-min Rain = 0
KSLS 191220Z 33012G17KT M01/M04 A3019 RMK A01 T10141043  RH  082%=      5-min Rain = 0
KSLS 191225Z 33012KT M02/M04 A302 RMK A01 T10151042  RH  082%=      5-min Rain = 0
KSLS 191230Z 33013G18KT M02/M04 A302 RMK A01 T10151043  RH  082%=      5-min Rain = 0
KSLS 191235Z 33012KT M02/M04 A302 RMK A01 T10151043  RH  082%=      5-min Rain = 0
KSLS 191240Z 33012G17KT M02/M04 A302 RMK A01 T10151043  RH  082%=      5-min Rain = 0
KSLS 191245Z 32012G17KT M02/M04 A302 RMK A01 T10151043  RH  082%=      5-min Rain = 0
KSLS 191250Z 32012G17KT M02/M04 A3021 RMK A01 T10151043  RH  082%=      5-min Rain = 0
KSLS 191255Z 32013KT M02/M04 A3021 RMK A01 T10151043  RH  082%=      5-min Rain = 0
KSLS 191300Z 32012KT M02/M04 A3021 RMK A01 T10151043  RH  083%=      5-min Rain = 0
KSLS 191305Z 32012G19KT M01/M04 A3021 RMK A01 T10141042  RH  082%=      5-min Rain = 0
KSLS 191310Z 32011G16KT M01/M04 A3021 RMK A01 T10141042  RH  082%=      5-min Rain = 0
KSLS 191315Z 32010KT M01/M04 A3021 RMK A01 T10141042  RH  082%=      5-min Rain = 0
KSLS 191320Z 32010G15KT M02/M04 A3022 RMK A01 T10151042  RH  083%=      5-min Rain = 0
KSLS 191325Z 32012G17KT M01/M04 A3022 RMK A01 T10141041  RH  083%=      5-min Rain = 0
KSLS 191330Z 32012G17KT M01/M04 A3022 RMK A01 T10111040  RH  081%=      5-min Rain = 0
KSLS 191335Z 32012G18KT M01/M04 A3022 RMK A01 T10101040  RH  081%=      5-min Rain = 0
KSLS 191340Z 32012KT M01/M04 A3023 RMK A01 T10111040  RH  081%=      5-min Rain = 0
KSLS 191345Z 32010G15KT M01/M04 A3023 RMK A01 T10111040  RH  082%=      5-min Rain = 0
KSLS 191350Z 31010G15KT M01/M04 A3023 RMK A01 T10121040  RH  082%=      5-min Rain = 0
KSLS 191355Z 31010G15KT M01/M04 A3023 RMK A01 T10111039  RH  082%=      5-min Rain = 0
KSLS 191400Z 32011G17KT M01/M04 A3023 RMK A01 T10081038  RH  081%=      5-min Rain = 0
KSLS 191405Z 32012G17KT M00/M04 A3024 RMK A01 T10031037  RH  078%=      5-min Rain = 0
KSLS 191410Z 32012G18KT 00/04 A3024 RMK A01 T00000-37  RH  077%=      5-min Rain = 0
KSLS 191415Z 32013G18KT 00/M04 A3024 RMK A01 T00031036  RH  076%=      5-min Rain = 0
KSLS 191420Z 32013G20KT 01/M04 A3025 RMK A01 T00051036  RH  075%=      5-min Rain = 0
KSLS 191425Z 32013G20KT 01/M04 A3025 RMK A01 T00071036  RH  074%=      5-min Rain = 0
KSLS 191430Z 32012G20KT 01/M04 A3025 RMK A01 T00081036  RH  074%=      5-min Rain = 0
KSLS 191435Z 32014G19KT 01/M04 A3026 RMK A01 T00081036  RH  073%=      5-min Rain = 0
KSLS 191440Z 32011KT 01/M04 A3026 RMK A01 T00091035  RH  074%=      5-min Rain = 0
KSLS 191445Z 32012G17KT 01/M04 A3026 RMK A01 T00091035  RH  073%=      5-min Rain = 0
KSLS 191450Z 32013G18KT 01/M04 A3027 RMK A01 T00111035  RH  072%=      5-min Rain = 0
KSLS 191455Z 33013G18KT 01/M03 A3027 RMK A01 T00121034  RH  072%=      5-min Rain = 0
KSLS 191500Z 33014G20KT 02/M03 A3028 RMK A01 T00151033  RH  072%=      5-min Rain = 0
KSLS 191505Z 33013G19KT 02/M03 A3028 RMK A01 T00181032  RH  070%=      5-min Rain = 0
KSLS 191510Z 33013G18KT 02/M03 A3028 RMK A01 T00211031  RH  069%=      5-min Rain = 0
KSLS 191515Z 33016G22KT 02/M03 A3028 RMK A01 T00241031  RH  068%=      5-min Rain = 0
KSLS 191520Z 33015G21KT 03/M03 A3028 RMK A01 T00251031  RH  067%=      5-min Rain = 0
KSLS 191525Z 33016G21KT 03/M03 A3028 RMK A01 T00271031  RH  066%=      5-min Rain = 0
KSLS 191530Z 34017G23KT 03/M03 A3028 RMK A01 T00281031  RH  066%=      5-min Rain = 0
KSLS 191535Z 34016G24KT 03/M03 A3029 RMK A01 T00291030  RH  066%=      5-min Rain = 0
KSLS 191540Z 33016G21KT 03/M03 A303 RMK A01 T00301029  RH  066%=      5-min Rain = 0
KSLS 191545Z 34017G24KT 03/M03 A303 RMK A01 T00301029  RH  066%=      5-min Rain = 0
KSLS 191550Z 34018G23KT 03/M03 A303 RMK A01 T00311029  RH  065%=      5-min Rain = 0
KSLS 191555Z 34016G22KT 03/M03 A303 RMK A01 T00331027  RH  065%=      5-min Rain = 0
KSLS 191600Z 34015G20KT 04/M03 A303 RMK A01 T00371026  RH  064%=      5-min Rain = 0
KSLS 191605Z 34014G20KT 04/M03 A303 RMK A01 T00381026  RH  064%=      5-min Rain = 0
KSLS 191610Z 34014G19KT 04/M03 A303 RMK A01 T00401027  RH  062%=      5-min Rain = 0
KSLS 191615Z 34016G22KT 04/M03 A303 RMK A01 T00421025  RH  062%=      5-min Rain = 0
KSLS 191620Z 34013KT 05/M02 A303 RMK A01 T00451023  RH  062%=      5-min Rain = 0
KSLS 191625Z 34014G23KT 05/M02 A3031 RMK A01 T00481024  RH  060%=      5-min Rain = 0
KSLS 191630Z 34018G24KT 05/M03 A3031 RMK A01 T00481027  RH  059%=      5-min Rain = 0
KSLS 191635Z 34016G25KT 05/M03 A3031 RMK A01 T00501025  RH  059%=      5-min Rain = 0
KSLS 191640Z 34017G23KT 05/M03 A3031 RMK A01 T00531025  RH  058%=      5-min Rain = 0
KSLS 191645Z 35015G20KT 05/M03 A3032 RMK A01 T00531027  RH  057%=      5-min Rain = 0
KSLS 191650Z 35017G23KT 05/M03 A3032 RMK A01 T00531028  RH  056%=      5-min Rain = 0
KSLS 191655Z 35018G24KT 05/M03 A3031 RMK A01 T00521028  RH  057%=      5-min Rain = 0
KSLS 191700Z 35017G24KT 05/M03 A3032 RMK A01 T00531029  RH  056%=      5-min Rain = 0
KSLS 191705Z 35017G23KT 05/M03 A3032 RMK A01 T00541027  RH  056%=      5-min Rain = 0
KSLS 191710Z 35017G24KT 06/M03 A3031 RMK A01 T00571027  RH  055%=      5-min Rain = 0
KSLS 191715Z 35018G23KT 06/M03 A3031 RMK A01 T00551028  RH  056%=      5-min Rain = 0
KSLS 191720Z 36017G22KT 06/M03 A3031 RMK A01 T00601026  RH  055%=      5-min Rain = 0
KSLS 191725Z 35015G22KT 06/M03 A3031 RMK A01 T00611025  RH  054%=      5-min Rain = 0
KSLS 191730Z 34017G22KT 07/M03 A3031 RMK A01 T00651025  RH  053%=      5-min Rain = 0
KSLS 191735Z 35017G22KT 07/M02 A3031 RMK A01 T00661024  RH  053%=      5-min Rain = 0
KSLS 191740Z 35016G24KT 07/M02 A3031 RMK A01 T00681023  RH  053%=      5-min Rain = 0
KSLS 191745Z 36016G23KT 07/M03 A3031 RMK A01 T00691026  RH  051%=      5-min Rain = 0
KSLS 191750Z 35016G23KT 07/M03 A3031 RMK A01 T00731025  RH  050%=      5-min Rain = 0
KSLS 191755Z 35017G23KT 07/M03 A3031 RMK A01 T00721029  RH  049%=      5-min Rain = 0
KSLS 191800Z 36015G21KT 07/M03 A3031 RMK A01 T00741028  RH  049%=      5-min Rain = 0
KSLS 191805Z 36016G22KT 08/M03 A3031 RMK A01 T00761028  RH  048%=      5-min Rain = 0
KSLS 191810Z 35019KT 07/M03 A3031 RMK A01 T00741033  RH  047%=      5-min Rain = 0
KSLS 191815Z 35018G25KT 08/M03 A3031 RMK A01 T00751031  RH  048%=      5-min Rain = 0
KSLS 191820Z 36016G23KT 08/M03 A3031 RMK A01 T00781030  RH  047%=      5-min Rain = 0
KSLS 191825Z 35015G24KT 08/M03 A3031 RMK A01 T00791029  RH  047%=      5-min Rain = 0
KSLS 191830Z 35013G20KT 08/M03 A3031 RMK A01 T00821027  RH  047%=      5-min Rain = 0
KSLS 191835Z 36013G18KT 08/M03 A3031 RMK A01 T00831026  RH  047%=      5-min Rain = 0
KSLS 191840Z 35012KT 08/M03 A303 RMK A01 T00831026  RH  047%=      5-min Rain = 0
KSLS 191845Z 35013G22KT 09/M03 A303 RMK A01 T00861025  RH  046%=      5-min Rain = 0
KSLS 191850Z 35015KT 09/M03 A303 RMK A01 T00861026  RH  046%=      5-min Rain = 0
KSLS 191855Z 35012G18KT 09/M03 A303 RMK A01 T00861025  RH  046%=      5-min Rain = 0
KSLS 191900Z 34013G19KT 09/M03 A303 RMK A01 T00901025  RH  045%=      5-min Rain = 0
KSLS 191905Z 36011G17KT 09/M02 A303 RMK A01 T00941023  RH  044%=      5-min Rain = 0
KSLS 191910Z 35013G19KT 09/M03 A303 RMK A01 T00911026  RH  044%=      5-min Rain = 0
KSLS 191915Z 35014G20KT 09/M03 A303 RMK A01 T00891027  RH  044%=      5-min Rain = 0
KSLS 191920Z 34013G18KT 09/M03 A3029 RMK A01 T00901028  RH  044%=      5-min Rain = 0
KSLS 191925Z 35012KT 09/M03 A3029 RMK A01 T00931026  RH  043%=      5-min Rain = 0
KSLS 191930Z 35013G18KT 09/M03 A3029 RMK A01 T00931028  RH  043%=      5-min Rain = 0
KSLS 191935Z 00013G19KT 09/M03 A3029 RMK A01 T00931028  RH  043%=      5-min Rain = 0
KSLS 191940Z 35010G21KT 10/M03 A3029 RMK A01 T00961025  RH  043%=      5-min Rain = 0
KSLS 191945Z 33015G22KT 10/M03 A3029 RMK A01 T01001030  RH  040%=      5-min Rain = 0
KSLS 191950Z 34014G19KT 10/M03 A3028 RMK A01 T01021030  RH  040%=      5-min Rain = 0
KSLS 191955Z 35014G21KT 10/M03 A3028 RMK A01 T01021033  RH  039%=      5-min Rain = 0
KSLS 192000Z 35013G19KT 10/M03 A3028 RMK A01 T01021033  RH  039%=      5-min Rain = 0
KSLS 192005Z 35014G19KT 10/M03 A3027 RMK A01 T01041032  RH  039%=      5-min Rain = 0
KSLS 192010Z 34015G20KT 10/M03 A3027 RMK A01 T01031033  RH  039%=      5-min Rain = 0
KSLS 192015Z 35014G21KT 11/M03 A3027 RMK A01 T01061033  RH  038%=      5-min Rain = 0
KSLS 192020Z 35016G21KT 11/M04 A3026 RMK A01 T01061036  RH  037%=      5-min Rain = 0
KSLS 192025Z 35013G19KT 11/M04 A3026 RMK A01 T01051035  RH  037%=      5-min Rain = 0
KSLS 192030Z 35014G19KT 11/M03 A3026 RMK A01 T01081034  RH  037%=      5-min Rain = 0
KSLS 192035Z 35015G21KT 11/M04 A3026 RMK A01 T01071035  RH  037%=      5-min Rain = 0
KSLS 192040Z 34015G20KT 11/M04 A3026 RMK A01 T01091036  RH  036%=      5-min Rain = 0
KSLS 192045Z 35016G23KT 11/M04 A3026 RMK A01 T01071037  RH  037%=      5-min Rain = 0
KSLS 192050Z 35014G19KT 11/M04 A3026 RMK A01 T01081037  RH  036%=      5-min Rain = 0
KSLS 192055Z 34013G20KT 11/M03 A3026 RMK A01 T01111034  RH  036%=      5-min Rain = 0
KSLS 192100Z 35012G20KT 11/M04 A3026 RMK A01 T01131036  RH  036%=      5-min Rain = 0
KSLS 192105Z 35016G24KT 11/M04 A3025 RMK A01 T01111037  RH  036%=      5-min Rain = 0
KSLS 192110Z 33012G19KT 11/M04 A3025 RMK A01 T01091037  RH  036%=      5-min Rain = 0
KSLS 192115Z 35014G19KT 11/M04 A3025 RMK A01 T01101038  RH  036%=      5-min Rain = 0
KSLS 192120Z 35014G19KT 11/M04 A3025 RMK A01 T01101038  RH  036%=      5-min Rain = 0
KSLS 192125Z 35014G20KT 11/M04 A3025 RMK A01 T01101038  RH  036%=      5-min Rain = 0
KSLS 192130Z 35015G22KT 11/M04 A3025 RMK A01 T01091039  RH  036%=      5-min Rain = 0
KSLS 192135Z 34012G17KT 11/M04 A3025 RMK A01 T01111037  RH  036%=      5-min Rain = 0
KSLS 192140Z 34010G15KT 11/M04 A3025 RMK A01 T01121037  RH  035%=      5-min Rain = 0
KSLS 192145Z 35014G20KT 11/M04 A3025 RMK A01 T01111037  RH  035%=      5-min Rain = 0
KSLS 192150Z 33014KT 11/M04 A3026 RMK A01 T01101037  RH  036%=      5-min Rain = 0
KSLS 192155Z 34012G18KT 11/M04 A3026 RMK A01 T01111037  RH  036%=      5-min Rain = 0
KSLS 192200Z 33013G19KT 11/M04 A3026 RMK A01 T01111036  RH  036%=      5-min Rain = 0
KSLS 192205Z 34013KT 11/M04 A3026 RMK A01 T01091037  RH  036%=      5-min Rain = 0
KSLS 192210Z 34012G17KT 11/M04 A3026 RMK A01 T01091038  RH  036%=      5-min Rain = 0
KSLS 192215Z 34012G17KT 11/M04 A3026 RMK A01 T01081037  RH  036%=      5-min Rain = 0
KSLS 192220Z 34011G16KT 11/M04 A3026 RMK A01 T01101036  RH  036%=      5-min Rain = 0
KSLS 192225Z 35011KT 11/M04 A3026 RMK A01 T01101037  RH  036%=      5-min Rain = 0
KSLS 192230Z 34011G16KT 11/M04 A3026 RMK A01 T01081038  RH  036%=      5-min Rain = 0
KSLS 192235Z 34010G15KT 11/M04 A3026 RMK A01 T01081037  RH  036%=      5-min Rain = 0
KSLS 192240Z 34010KT 11/M04 A3026 RMK A01 T01061038  RH  036%=      5-min Rain = 0
KSLS 192245Z 35012KT 11/M04 A3026 RMK A01 T01061039  RH  036%=      5-min Rain = 0
KSLS 192250Z 35011KT 11/M04 A3026 RMK A01 T01061037  RH  037%=      5-min Rain = 0
KSLS 192255Z 34011KT 10/M04 A3026 RMK A01 T01041038  RH  037%=      5-min Rain = 0
KSLS 192300Z 35009G15KT 10/M04 A3026 RMK A01 T01031038  RH  037%=      5-min Rain = 0
KSLS 192305Z 35010KT 10/M04 A3026 RMK A01 T01031038  RH  037%=      5-min Rain = 0
KSLS 192310Z 35010KT 10/M04 A3026 RMK A01 T01021038  RH  038%=      5-min Rain = 0
KSLS 192315Z 35010KT 10/M04 A3026 RMK A01 T01011038  RH  038%=      5-min Rain = 0
KSLS 192320Z 36009KT 10/M04 A3026 RMK A01 T01001038  RH  038%=      5-min Rain = 0
KSLS 192325Z 35009KT 10/M04 A3026 RMK A01 T00991038  RH  038%=      5-min Rain = 0
KSLS 192330Z 36009KT 10/M04 A3026 RMK A01 T00981038  RH  039%=      5-min Rain = 0
KSLS 192335Z 00009KT 10/M04 A3025 RMK A01 T00961038  RH  039%=      5-min Rain = 0
KSLS 192340Z 00008KT 09/M04 A3025 RMK A01 T00931038  RH  040%=      5-min Rain = 0
KSLS 192345Z 36008KT 09/M04 A3026 RMK A01 T00911039  RH  040%=      5-min Rain = 0
KSLS 192350Z 35007KT 09/M04 A3026 RMK A01 T00891039  RH  041%=      5-min Rain = 0
KSLS 192355Z 35007KT 09/M04 A3026 RMK A01 T00861039  RH  042%=      5-min Rain = 0
KSLS 200000Z 35007KT 08/M04 A3026 RMK A01 T00831039  RH  042%=      5-min Rain = 0
KSLS 200005Z 35007KT 08/M04 A3026 RMK A01 T00791040  RH  043%=      5-min Rain = 0
KSLS 200010Z 36006KT 08/M04 A3027 RMK A01 T00781041  RH  043%=      5-min Rain = 0
KSLS 200015Z 35006KT 08/M04 A3027 RMK A01 T00751041  RH  044%=      5-min Rain = 0
KSLS 200020Z 35004KT 07/M04 A3027 RMK A01 T00721042  RH  045%=      5-min Rain = 0
KSLS 200025Z 00005KT 07/M04 A3027 RMK A01 T00701042  RH  045%=      5-min Rain = 0
KSLS 200030Z 00005KT 07/M04 A3027 RMK A01 T00681042  RH  046%=      5-min Rain = 0
KSLS 200035Z 01005KT 07/M04 A3027 RMK A01 T00651043  RH  046%=      5-min Rain = 0
KSLS 200040Z 01004KT 07/M04 A3027 RMK A01 T00661043  RH  046%=      5-min Rain = 0
KSLS 200045Z 02004KT 07/M04 A3027 RMK A01 T00651043  RH  046%=      5-min Rain = 0
KSLS 200050Z 02004KT 06/M04 A3027 RMK A01 T00621043  RH  047%=      5-min Rain = 0
KSLS 200055Z 02003KT 06/M04 A3027 RMK A01 T00611043  RH  048%=      5-min Rain = 0
KSLS 200100Z 03004KT 06/M04 A3027 RMK A01 T00601044  RH  048%=      5-min Rain = 0
KSLS 200105Z 04003KT 06/M05 A3027 RMK A01 T00581045  RH  048%=      5-min Rain = 0
KSLS 200110Z 05003KT 06/M05 A3027 RMK A01 T00581045  RH  048%=      5-min Rain = 0
KSLS 200115Z 04003KT 06/M05 A3027 RMK A01 T00581046  RH  048%=      5-min Rain = 0
KSLS 200120Z 04003KT 06/M05 A3027 RMK A01 T00571047  RH  047%=      5-min Rain = 0
KSLS 200125Z 04004KT 06/M05 A3027 RMK A01 T00561048  RH  048%=      5-min Rain = 0
KSLS 200130Z 04006KT 05/M05 A3027 RMK A01 T00531047  RH  049%=      5-min Rain = 0
KSLS 200135Z 04005KT 05/M05 A3027 RMK A01 T00511048  RH  049%=      5-min Rain = 0
KSLS 200140Z 04004KT 05/M05 A3027 RMK A01 T00501048  RH  050%=      5-min Rain = 0
KSLS 200145Z 04003KT 05/M05 A3027 RMK A01 T00511048  RH  049%=      5-min Rain = 0
KSLS 200150Z 04004KT 05/M05 A3027 RMK A01 T00511048  RH  049%=      5-min Rain = 0
KSLS 200155Z 04006KT 05/M05 A3026 RMK A01 T00481048  RH  050%=      5-min Rain = 0
KSLS 200200Z 06004KT 04/M05 A3026 RMK A01 T00441048  RH  052%=      5-min Rain = 0
KSLS 200205Z 07004KT 04/M05 A3026 RMK A01 T00431047  RH  053%=      5-min Rain = 0
KSLS 200210Z 06004KT 05/M05 A3026 RMK A01 T00461047  RH  052%=      5-min Rain = 0
KSLS 200215Z 06004KT 05/M05 A3025 RMK A01 T00451047  RH  052%=      5-min Rain = 0
KSLS 200220Z 05003KT 04/M05 A3026 RMK A01 T00431047  RH  052%=      5-min Rain = 0
KSLS 200225Z 05004KT 04/M05 A3027 RMK A01 T00441047  RH  052%=      5-min Rain = 0
KSLS 200230Z 04004KT 05/M05 A3027 RMK A01 T00451047  RH  052%=      5-min Rain = 0
KSLS 200235Z 05004KT 04/M05 A3027 RMK A01 T00441047  RH  052%=      5-min Rain = 0
KSLS 200240Z 05003KT 05/M05 A3028 RMK A01 T00451047  RH  052%=      5-min Rain = 0
KSLS 200245Z 05003KT 05/M05 A3028 RMK A01 T00471047  RH  051%=      5-min Rain = 0
KSLS 200250Z 06003KT 05/M05 A3028 RMK A01 T00461047  RH  052%=      5-min Rain = 0
KSLS 200255Z 05003KT 05/M05 A3028 RMK A01 T00471046  RH  051%=      5-min Rain = 0
KSLS 200300Z 05003KT 05/M05 A3029 RMK A01 T00481046  RH  051%=      5-min Rain = 0
KSLS 200305Z 05003KT 05/M05 A3029 RMK A01 T00461047  RH  051%=      5-min Rain = 0
KSLS 200310Z 06003KT 04/M05 A3029 RMK A01 T00431047  RH  052%=      5-min Rain = 0
KSLS 200315Z 07003KT 04/M05 A3029 RMK A01 T00431047  RH  052%=      5-min Rain = 0
KSLS 200320Z 08002KT 05/M05 A3028 RMK A01 T00451047  RH  052%=      5-min Rain = 0
KSLS 200325Z 09003KT 05/M05 A3028 RMK A01 T00461045  RH  052%=      5-min Rain = 0
KSLS 200330Z 08003KT 04/M04 A3028 RMK A01 T00431043  RH  054%=      5-min Rain = 0
KSLS 200335Z 08002KT 04/M04 A3028 RMK A01 T00401043  RH  056%=      5-min Rain = 0
KSLS 200340Z 10001KT 04/M04 A3029 RMK A01 T00361043  RH  057%=      5-min Rain = 0
KSLS 200345Z 11005KT 03/M05 A3028 RMK A01 T00301048  RH  057%=      5-min Rain = 0
KSLS 200350Z 11006KT 02/M05 A3028 RMK A01 T00211051  RH  060%=      5-min Rain = 0
KSLS 200355Z 10007KT 02/M05 A3027 RMK A01 T00211049  RH  061%=      5-min Rain = 0
KSLS 200400Z 11007KT 02/M05 A3027 RMK A01 T00191050  RH  061%=      5-min Rain = 0
KSLS 200405Z 10006KT 02/M05 A3028 RMK A01 T00231048  RH  060%=      5-min Rain = 0
KSLS 200410Z 11006KT 02/M05 A3027 RMK A01 T00231047  RH  060%=      5-min Rain = 0
KSLS 200415Z 11006KT 02/M05 A3027 RMK A01 T00171053  RH  060%=      5-min Rain = 0
KSLS 200420Z 11006KT 02/M05 A3027 RMK A01 T00181052  RH  061%=      5-min Rain = 0
KSLS 200425Z 12006KT 02/M05 A3027 RMK A01 T00171053  RH  061%=      5-min Rain = 0
KSLS 200430Z 12006KT 01/M05 A3028 RMK A01 T00131050  RH  063%=      5-min Rain = 0
KSLS 200435Z 12007KT 01/M05 A3028 RMK A01 T00121050  RH  064%=      5-min Rain = 0
KSLS 200440Z 12007KT 01/M05 A3028 RMK A01 T00101051  RH  065%=      5-min Rain = 0
KSLS 200445Z 12006KT 01/M05 A3028 RMK A01 T00081051  RH  065%=      5-min Rain = 0
KSLS 200450Z 12007KT 01/M05 A3028 RMK A01 T00051051  RH  067%=      5-min Rain = 0
KSLS 200455Z 13008KT M00/M05 A3028 RMK A01 T10011050  RH  071%=      5-min Rain = 0
KSLS 200500Z 14008KT M00/M05 A3028 RMK A01 T10011048  RH  071%=      5-min Rain = 0
KSLS 200505Z 14008KT M00/M05 A3028 RMK A01 T10021049  RH  071%=      5-min Rain = 0
KSLS 200510Z 14008KT M00/M05 A3028 RMK A01 T10021048  RH  072%=      5-min Rain = 0
KSLS 200515Z 15009KT 00/05 A3029 RMK A01 T00000-48  RH  071%=      5-min Rain = 0
KSLS 200520Z 15008KT 00/M05 A3029 RMK A01 T00011048  RH  071%=      5-min Rain = 0
KSLS 200525Z 15008KT M00/M05 A3029 RMK A01 T10031050  RH  071%=      5-min Rain = 0
KSLS 200530Z 15009KT M00/M05 A3029 RMK A01 T10041049  RH  072%=      5-min Rain = 0
KSLS 200535Z 15008KT M00/M05 A3029 RMK A01 T10021048  RH  072%=      5-min Rain = 0
KSLS 200540Z 14007KT M00/M05 A3029 RMK A01 T10041049  RH  072%=      5-min Rain = 0
KSLS 200545Z 14007KT M01/M05 A303 RMK A01 T10051049  RH  073%=      5-min Rain = 0
KSLS 200550Z 15007KT M01/M05 A303 RMK A01 T10061049  RH  073%=      5-min Rain = 0
KSLS 200555Z 15008KT M01/M05 A3029 RMK A01 T10071049  RH  074%=      5-min Rain = 0

Page generated in 0.0087 seconds.